Time;durP1;ratioP1;P1;durP2;ratioP2;P2;SDS_P1;SDS_P2;PMS_P1;PMS_P2;Temp;Humidity;BMP_temperature;BMP_pressure;BME280_temperature;BME280_humidity;BME280_pressure;Samples;Min_cycle;Max_cycle;Signal;HPM_P1;HPM_P2
2023/09/30 00:00:20;;;;;;;17.07;10.20;;;17.70;99.90;;;;;;6130230;23;20255;-81
2023/09/30 00:02:47;;;;;;;17.40;9.50;;;17.70;99.90;;;;;;6157348;23;20199;-89
2023/09/30 00:05:19;;;;;;;15.20;9.67;;;17.70;99.90;;;;;;6132227;23;20251;-81
2023/09/30 00:07:50;;;;;;;17.97;10.17;;;17.70;99.90;;;;;;6153108;23;20193;-80
2023/09/30 00:10:26;;;;;;;21.60;10.00;;;17.70;99.90;;;;;;6123797;23;20204;-81
2023/09/30 00:12:59;;;;;;;16.20;9.87;;;17.70;99.90;;;;;;6124463;23;20172;-89
2023/09/30 00:15:30;;;;;;;14.53;9.63;;;17.70;99.90;;;;;;6100957;23;20240;-80
2023/09/30 00:18:10;;;;;;;19.47;10.03;;;17.70;99.90;;;;;;6122638;23;20660;-80
2023/09/30 00:20:40;;;;;;;23.50;10.40;;;17.60;99.90;;;;;;6097658;23;20219;-79
2023/09/30 00:23:11;;;;;;;16.17;10.07;;;17.60;99.90;;;;;;6122476;23;20173;-78
2023/09/30 00:25:42;;;;;;;15.57;9.77;;;17.70;99.90;;;;;;6098704;23;20593;-80
2023/09/30 00:28:10;;;;;;;19.20;9.80;;;17.60;99.90;;;;;;6123356;23;20200;-79
2023/09/30 00:30:39;;;;;;;21.50;10.33;;;17.60;99.90;;;;;;6124949;23;20172;-79
2023/09/30 00:33:13;;;;;;;15.20;9.43;;;17.60;99.90;;;;;;6124885;23;20605;-78
2023/09/30 00:35:41;;;;;;;15.93;9.67;;;17.60;99.90;;;;;;6098340;23;20628;-78
2023/09/30 00:38:10;;;;;;;16.50;9.27;;;17.60;99.90;;;;;;6123769;23;20192;-78
2023/09/30 00:40:37;;;;;;;18.87;9.90;;;17.60;99.90;;;;;;6099144;23;20598;-79
2023/09/30 00:43:23;;;;;;;17.63;10.17;;;17.60;99.90;;;;;;6098308;23;20175;-80
2023/09/30 00:46:12;;;;;;;16.00;9.87;;;17.60;99.90;;;;;;6123258;23;20222;-80
2023/09/30 00:48:53;;;;;;;16.40;9.57;;;17.50;99.90;;;;;;6125077;23;20240;-80
2023/09/30 00:51:26;;;;;;;13.90;9.43;;;17.50;99.90;;;;;;6099411;23;20185;-90
2023/09/30 00:54:01;;;;;;;15.43;8.93;;;17.60;99.90;;;;;;6100534;23;20180;-89
2023/09/30 00:56:36;;;;;;;17.03;9.40;;;17.70;99.90;;;;;;6126261;23;20165;-90
2023/09/30 00:59:08;;;;;;;15.13;9.37;;;17.60;99.90;;;;;;6124467;23;20698;-78
2023/09/30 01:01:46;;;;;;;18.43;9.50;;;17.60;99.90;;;;;;6097716;23;20664;-82
2023/09/30 01:04:21;;;;;;;15.63;9.80;;;17.60;99.90;;;;;;6123862;23;20164;-90
2023/09/30 01:06:57;;;;;;;16.90;10.00;;;17.50;99.90;;;;;;6128085;23;20196;-90
2023/09/30 01:09:28;;;;;;;16.60;9.47;;;17.50;99.90;;;;;;6101760;23;20181;-88
2023/09/30 01:11:56;;;;;;;15.80;10.17;;;17.60;99.90;;;;;;6128730;23;20562;-90
2023/09/30 01:14:38;;;;;;;16.20;9.70;;;17.60;99.90;;;;;;6124775;23;20180;-80
2023/09/30 01:17:11;;;;;;;16.07;9.70;;;17.60;99.90;;;;;;6124401;23;20165;-79
2023/09/30 01:19:42;;;;;;;15.53;9.27;;;17.50;99.90;;;;;;6098318;23;20200;-78
2023/09/30 01:22:11;;;;;;;15.17;9.33;;;17.50;99.90;;;;;;6124696;23;20189;-80
2023/09/30 01:24:40;;;;;;;15.33;9.20;;;17.50;99.90;;;;;;6125093;23;20239;-77
2023/09/30 01:27:13;;;;;;;15.03;9.60;;;17.50;99.90;;;;;;6097551;23;20236;-79
2023/09/30 01:29:43;;;;;;;15.50;9.40;;;17.50;99.90;;;;;;6124334;23;20609;-79
2023/09/30 01:32:17;;;;;;;17.47;9.40;;;17.40;99.90;;;;;;6122810;23;20165;-80
2023/09/30 01:34:50;;;;;;;16.23;9.57;;;17.40;99.90;;;;;;6100407;23;20244;-79
2023/09/30 01:37:19;;;;;;;15.97;9.53;;;17.40;99.90;;;;;;6123933;23;20267;-78
2023/09/30 01:39:50;;;;;;;17.37;9.77;;;17.40;99.90;;;;;;6122960;23;20197;-79
2023/09/30 01:42:19;;;;;;;18.13;10.10;;;17.40;99.90;;;;;;6123386;23;20165;-79
2023/09/30 01:44:50;;;;;;;15.00;9.70;;;17.40;99.90;;;;;;6125806;23;20196;-79
2023/09/30 01:47:18;;;;;;;16.43;10.10;;;17.40;99.90;;;;;;6125398;23;20165;-79
2023/09/30 01:49:47;;;;;;;13.43;9.40;;;17.40;99.90;;;;;;6076783;23;20173;-78
2023/09/30 01:52:15;;;;;;;20.50;10.10;;;17.50;99.90;;;;;;6125333;23;20244;-78
2023/09/30 01:54:43;;;;;;;15.90;9.40;;;17.50;99.90;;;;;;6125737;23;20164;-78
2023/09/30 01:57:12;;;;;;;15.17;9.43;;;17.40;99.90;;;;;;6100330;23;20169;-87
2023/09/30 01:59:43;;;;;;;19.93;11.13;;;17.40;99.90;;;;;;6102326;23;20193;-78
2023/09/30 02:02:15;;;;;;;14.30;10.13;;;17.40;99.90;;;;;;6101888;23;20180;-79
2023/09/30 02:04:44;;;;;;;15.30;9.23;;;17.40;99.90;;;;;;6126184;23;20476;-80
2023/09/30 02:07:12;;;;;;;16.30;9.90;;;17.40;99.90;;;;;;6100293;23;20192;-78
2023/09/30 02:09:43;;;;;;;17.77;9.73;;;17.40;99.90;;;;;;6099180;23;20169;-79
2023/09/30 02:12:11;;;;;;;19.67;10.50;;;17.30;99.90;;;;;;6124663;23;20184;-82
2023/09/30 02:14:38;;;;;;;14.10;9.20;;;17.40;99.90;;;;;;6125854;23;20200;-77
2023/09/30 02:17:09;;;;;;;15.13;9.57;;;17.40;99.90;;;;;;6124959;23;20165;-77
2023/09/30 02:19:40;;;;;;;16.27;9.30;;;17.40;99.90;;;;;;6126192;23;20284;-78
2023/09/30 02:22:07;;;;;;;19.63;10.07;;;17.40;99.90;;;;;;6125016;23;20281;-78
2023/09/30 02:24:35;;;;;;;15.73;9.87;;;17.40;99.90;;;;;;6127707;23;20161;-87
2023/09/30 02:27:03;;;;;;;16.17;9.80;;;17.40;99.90;;;;;;6127006;23;20184;-88
2023/09/30 02:29:31;;;;;;;13.33;9.60;;;17.40;99.90;;;;;;6101307;23;20601;-77
2023/09/30 02:31:59;;;;;;;15.17;9.73;;;17.30;99.90;;;;;;6124412;23;20165;-78
2023/09/30 02:34:42;;;;;;;16.10;9.70;;;17.30;99.90;;;;;;6124856;23;20175;-80
2023/09/30 02:37:10;;;;;;;14.97;9.40;;;17.30;99.90;;;;;;6128308;23;20192;-77
2023/09/30 02:39:38;;;;;;;18.30;9.77;;;17.30;99.90;;;;;;6125513;23;20245;-77
2023/09/30 02:42:08;;;;;;;15.73;9.70;;;17.30;99.90;;;;;;6126656;23;20176;-77
2023/09/30 02:44:36;;;;;;;16.13;9.67;;;17.20;99.90;;;;;;6126626;23;20176;-87
2023/09/30 02:47:08;;;;;;;18.50;9.73;;;17.20;99.90;;;;;;6125949;23;20612;-80
2023/09/30 02:49:38;;;;;;;13.57;9.30;;;17.20;99.90;;;;;;6126074;23;20228;-89
2023/09/30 02:52:16;;;;;;;25.37;10.50;;;17.10;99.90;;;;;;6126770;23;20188;-87
2023/09/30 02:54:48;;;;;;;15.17;9.67;;;17.20;99.90;;;;;;6125251;23;20552;-78
2023/09/30 02:57:17;;;;;;;15.57;9.53;;;17.30;99.90;;;;;;6126157;23;20169;-78
2023/09/30 02:59:46;;;;;;;16.87;9.50;;;17.20;99.90;;;;;;6124952;23;20220;-78
2023/09/30 03:02:15;;;;;;;16.50;9.87;;;17.20;99.90;;;;;;6124812;23;20165;-77
2023/09/30 03:04:43;;;;;;;17.17;9.53;;;17.10;99.90;;;;;;6100991;23;20176;-77
2023/09/30 03:07:11;;;;;;;15.07;9.13;;;17.20;99.90;;;;;;6125033;23;20217;-77
2023/09/30 03:09:39;;;;;;;19.13;10.03;;;17.20;99.90;;;;;;6098818;23;20228;-78
2023/09/30 03:12:08;;;;;;;14.57;9.33;;;17.20;99.90;;;;;;6100386;23;20166;-87
2023/09/30 03:14:40;;;;;;;15.63;9.60;;;17.20;99.90;;;;;;6099164;23;20175;-77
2023/09/30 03:17:17;;;;;;;13.43;9.20;;;17.20;99.90;;;;;;6125387;23;20153;-79
2023/09/30 03:19:45;;;;;;;16.90;9.60;;;17.10;99.90;;;;;;6125837;23;20189;-78
2023/09/30 03:22:15;;;;;;;15.33;9.47;;;17.10;99.90;;;;;;6100262;23;20250;-78
2023/09/30 03:24:43;;;;;;;16.90;9.70;;;17.20;99.90;;;;;;6100035;23;20168;-78
2023/09/30 03:27:12;;;;;;;15.30;9.67;;;17.20;99.90;;;;;;6124186;23;20169;-79
2023/09/30 03:29:40;;;;;;;16.53;9.97;;;17.10;99.90;;;;;;6124211;23;20177;-78
2023/09/30 03:32:14;;;;;;;16.73;9.93;;;17.00;99.90;;;;;;6099965;23;20169;-78
2023/09/30 03:34:44;;;;;;;16.33;9.63;;;17.10;99.90;;;;;;6125501;23;20225;-79
2023/09/30 03:37:13;;;;;;;15.90;9.73;;;17.10;99.90;;;;;;6123618;23;20626;-78
2023/09/30 03:39:43;;;;;;;16.93;9.30;;;17.10;99.90;;;;;;6123733;23;20613;-79
2023/09/30 03:42:14;;;;;;;13.13;9.63;;;17.10;99.90;;;;;;6075634;23;20180;-77
2023/09/30 03:44:51;;;;;;;18.23;9.83;;;17.10;99.90;;;;;;6124886;23;20654;-79
2023/09/30 03:47:22;;;;;;;15.03;9.50;;;17.20;99.90;;;;;;6123607;23;20192;-84
2023/09/30 03:49:54;;;;;;;16.93;9.53;;;17.10;99.90;;;;;;6099456;23;20169;-84
2023/09/30 03:52:22;;;;;;;15.83;9.80;;;17.10;99.90;;;;;;6125733;23;20541;-88
2023/09/30 03:54:53;;;;;;;15.83;9.23;;;17.10;99.90;;;;;;6099121;23;20169;-88
2023/09/30 03:57:27;;;;;;;16.93;9.80;;;17.10;99.90;;;;;;6124986;23;20436;-79
2023/09/30 04:00:02;;;;;;;14.63;9.50;;;17.10;99.90;;;;;;6124615;23;20191;-80
2023/09/30 04:02:42;;;;;;;16.83;9.83;;;17.10;99.90;;;;;;6100537;23;20220;-78
2023/09/30 04:05:17;;;;;;;17.10;9.70;;;17.10;99.90;;;;;;6097535;23;20168;-79
2023/09/30 04:07:53;;;;;;;18.80;9.80;;;17.10;99.90;;;;;;6123842;23;20203;-80
2023/09/30 04:10:32;;;;;;;14.80;9.70;;;17.10;99.90;;;;;;6123524;23;20717;-88
2023/09/30 04:13:02;;;;;;;17.17;10.03;;;17.10;99.90;;;;;;6125025;23;20187;-89
2023/09/30 04:15:32;;;;;;;17.23;9.73;;;16.90;99.90;;;;;;6100763;23;20235;-88
2023/09/30 04:18:00;;;;;;;13.53;9.47;;;17.00;99.90;;;;;;6126430;23;20165;-87
2023/09/30 04:20:33;;;;;;;16.10;9.60;;;16.90;99.90;;;;;;6125657;23;20199;-88
2023/09/30 04:23:09;;;;;;;17.33;10.30;;;16.90;99.90;;;;;;6128133;23;20171;-87
2023/09/30 04:25:37;;;;;;;15.00;9.30;;;16.90;99.90;;;;;;6101774;23;20232;-78
2023/09/30 04:28:11;;;;;;;14.90;9.30;;;16.90;99.90;;;;;;6124650;23;20160;-81
2023/09/30 04:30:42;;;;;;;14.70;9.73;;;16.90;99.90;;;;;;6123544;23;20228;-79
2023/09/30 04:33:18;;;;;;;15.13;9.87;;;16.90;99.90;;;;;;6126414;23;20195;-83
2023/09/30 04:35:57;;;;;;;21.20;10.50;;;16.90;99.90;;;;;;6101833;23;20260;-78
2023/09/30 04:38:25;;;;;;;20.80;10.50;;;16.90;99.90;;;;;;6125029;23;20165;-79
2023/09/30 04:40:57;;;;;;;15.27;9.37;;;16.90;99.90;;;;;;6123951;23;20195;-79
2023/09/30 04:43:32;;;;;;;13.97;9.10;;;16.90;99.90;;;;;;6074692;23;20165;-80
2023/09/30 04:46:01;;;;;;;13.67;9.30;;;16.90;99.90;;;;;;6098737;23;20169;-79
2023/09/30 04:48:32;;;;;;;15.93;9.20;;;17.00;99.90;;;;;;6123872;23;20188;-79
2023/09/30 04:51:10;;;;;;;16.63;9.73;;;17.00;99.90;;;;;;6124305;23;20275;-79
2023/09/30 04:53:48;;;;;;;14.13;9.47;;;17.00;99.90;;;;;;6124328;23;20198;-79
2023/09/30 04:56:23;;;;;;;16.60;9.97;;;17.00;99.90;;;;;;6123296;23;20170;-79
2023/09/30 04:58:58;;;;;;;16.37;9.73;;;17.00;99.90;;;;;;6123504;23;20209;-82
2023/09/30 05:01:29;;;;;;;16.50;9.70;;;17.00;99.90;;;;;;6098787;23;20653;-80
2023/09/30 05:04:14;;;;;;;16.23;9.63;;;17.10;99.90;;;;;;6077450;23;20609;-77
2023/09/30 05:06:45;;;;;;;17.37;9.50;;;17.10;99.90;;;;;;6125308;23;20569;-88
2023/09/30 05:09:16;;;;;;;13.73;9.23;;;17.20;99.90;;;;;;6099634;23;20483;-88
2023/09/30 05:11:46;;;;;;;19.23;9.80;;;17.10;99.90;;;;;;6124710;23;20193;-77
2023/09/30 05:14:20;;;;;;;18.60;10.17;;;17.00;99.90;;;;;;6123444;23;20548;-78
2023/09/30 05:16:48;;;;;;;16.23;9.33;;;17.10;99.90;;;;;;6097948;23;20165;-79
2023/09/30 05:19:21;;;;;;;16.77;9.47;;;17.10;99.90;;;;;;6095462;23;20197;-79
2023/09/30 05:22:00;;;;;;;15.00;9.13;;;17.20;99.90;;;;;;6076418;23;20200;-78
2023/09/30 05:24:29;;;;;;;15.63;9.07;;;17.20;99.90;;;;;;6100825;23;20495;-87
2023/09/30 05:26:59;;;;;;;14.60;9.23;;;17.20;99.90;;;;;;6100730;23;20176;-87
2023/09/30 05:29:29;;;;;;;18.87;9.23;;;17.10;99.90;;;;;;6101994;23;20145;-87
2023/09/30 05:31:57;;;;;;;17.33;9.60;;;17.20;99.90;;;;;;6102059;23;20177;-88
2023/09/30 05:34:28;;;;;;;23.20;10.77;;;17.10;99.90;;;;;;6126794;23;20165;-78
2023/09/30 05:36:57;;;;;;;17.80;9.60;;;17.10;99.90;;;;;;6100137;23;20298;-78
2023/09/30 05:39:25;;;;;;;13.93;8.57;;;17.20;99.90;;;;;;6126671;23;20189;-89
2023/09/30 05:42:42;;;;;;;16.17;9.50;;;17.20;99.90;;;;;;6099847;23;20263;-81
2023/09/30 05:45:09;;;;;;;12.70;8.30;;;17.20;99.90;;;;;;6124516;23;20181;-77
2023/09/30 05:47:44;;;;;;;21.40;9.67;;;17.20;99.90;;;;;;6126457;23;20169;-89
2023/09/30 05:50:16;;;;;;;18.57;9.30;;;17.20;99.90;;;;;;6103404;23;20185;-89
2023/09/30 05:52:46;;;;;;;15.73;9.33;;;17.20;99.90;;;;;;6128992;23;20197;-77
2023/09/30 05:55:20;;;;;;;20.30;9.90;;;17.10;99.90;;;;;;6102451;23;20165;-88
2023/09/30 05:57:50;;;;;;;17.47;10.10;;;17.10;99.90;;;;;;6079252;23;20534;-87
2023/09/30 06:00:22;;;;;;;16.40;9.97;;;17.10;99.90;;;;;;6125118;23;20192;-77
2023/09/30 06:02:56;;;;;;;19.27;10.20;;;17.00;99.90;;;;;;6126612;23;20468;-84
2023/09/30 06:05:27;;;;;;;13.03;9.53;;;17.10;99.90;;;;;;6126731;23;20216;-84
2023/09/30 06:07:54;;;;;;;16.07;9.63;;;17.10;99.90;;;;;;6126798;23;20240;-85
2023/09/30 06:10:22;;;;;;;17.10;9.70;;;17.00;99.90;;;;;;6126069;23;20248;-82
2023/09/30 06:12:58;;;;;;;19.03;10.47;;;17.00;99.90;;;;;;6125592;23;20476;-76
2023/09/30 06:15:34;;;;;;;14.47;9.40;;;17.00;99.90;;;;;;6125423;23;20173;-77
2023/09/30 06:18:04;;;;;;;19.53;10.57;;;17.00;99.90;;;;;;6125730;23;20258;-77
2023/09/30 06:20:33;;;;;;;18.47;10.23;;;17.00;99.90;;;;;;6125497;23;20196;-78
2023/09/30 06:23:03;;;;;;;19.40;10.23;;;17.00;99.90;;;;;;6125842;23;20647;-77
2023/09/30 06:25:33;;;;;;;16.00;9.60;;;17.00;99.90;;;;;;6124061;23;20169;-78
2023/09/30 06:28:01;;;;;;;20.53;10.37;;;16.90;99.90;;;;;;6124960;23;20165;-78
2023/09/30 06:30:45;;;;;;;16.33;10.43;;;16.80;99.90;;;;;;6125476;23;20540;-83
2023/09/30 06:33:20;;;;;;;13.13;9.60;;;16.90;99.90;;;;;;6076262;23;20196;-82
2023/09/30 06:36:27;;;;;;;15.57;9.13;;;16.90;99.90;;;;;;6082162;23;20247;-79
2023/09/30 06:39:02;;;;;;;16.07;8.83;;;16.80;99.90;;;;;;6099523;23;20616;-80
2023/09/30 06:41:30;;;;;;;15.77;9.00;;;16.90;99.90;;;;;;6100290;23;20229;-81
2023/09/30 06:44:01;;;;;;;19.70;9.77;;;17.00;99.90;;;;;;6099239;23;20204;-81
2023/09/30 06:46:30;;;;;;;15.33;8.90;;;17.00;99.90;;;;;;6099687;23;20676;-80
2023/09/30 06:48:58;;;;;;;12.63;8.50;;;17.00;99.90;;;;;;6125591;23;20256;-80
2023/09/30 06:51:26;;;;;;;13.73;9.00;;;16.90;99.90;;;;;;6099619;23;20197;-80
2023/09/30 06:54:04;;;;;;;12.87;8.33;;;17.00;99.90;;;;;;6076928;23;20616;-81
2023/09/30 06:56:33;;;;;;;16.50;9.53;;;17.00;99.90;;;;;;6101410;23;20541;-80
2023/09/30 06:59:02;;;;;;;14.13;9.47;;;17.20;99.90;;;;;;6076579;23;20612;-80
2023/09/30 07:01:30;;;;;;;18.97;9.17;;;17.10;99.90;;;;;;6125898;23;20193;-80
2023/09/30 07:03:58;;;;;;;15.50;8.97;;;17.20;99.90;;;;;;6075865;23;20169;-81
2023/09/30 07:06:27;;;;;;;16.07;10.07;;;17.10;99.90;;;;;;6099821;23;20191;-81
2023/09/30 07:08:58;;;;;;;14.47;9.50;;;17.20;99.90;;;;;;6128203;23;20339;-80
2023/09/30 07:11:32;;;;;;;20.10;10.17;;;17.20;99.90;;;;;;6099138;23;20193;-80
2023/09/30 07:14:01;;;;;;;16.53;10.03;;;17.20;99.90;;;;;;6100117;23;20192;-81
2023/09/30 07:16:30;;;;;;;21.03;10.90;;;17.20;99.90;;;;;;6099642;23;20230;-81
2023/09/30 07:18:58;;;;;;;13.87;10.30;;;17.20;99.90;;;;;;6099802;23;20181;-81
2023/09/30 07:21:27;;;;;;;15.33;10.47;;;17.30;99.90;;;;;;6100425;23;20211;-80
2023/09/30 07:23:55;;;;;;;14.27;10.40;;;17.30;99.90;;;;;;6101025;23;20195;-80
2023/09/30 07:26:27;;;;;;;17.43;10.40;;;17.40;99.90;;;;;;6100600;23;20540;-80
2023/09/30 07:28:56;;;;;;;18.23;11.30;;;17.30;99.90;;;;;;6076856;23;20168;-79
2023/09/30 07:31:45;;;;;;;17.47;11.60;;;17.30;99.90;;;;;;6101035;23;20268;-81
2023/09/30 07:34:15;;;;;;;16.37;11.27;;;17.20;99.90;;;;;;6079664;23;20173;-81
2023/09/30 07:36:43;;;;;;;19.33;12.03;;;17.30;99.90;;;;;;6125906;23;20204;-81
2023/09/30 07:39:18;;;;;;;19.03;11.20;;;17.30;99.90;;;;;;6099477;23;20232;-82
2023/09/30 07:41:50;;;;;;;20.07;11.70;;;17.20;99.90;;;;;;6100111;23;20604;-80
2023/09/30 07:44:51;;;;;;;19.63;12.27;;;17.20;99.90;;;;;;6079046;23;20173;-81
2023/09/30 07:47:23;;;;;;;19.23;12.47;;;17.20;99.90;;;;;;6076799;23;20173;-81
2023/09/30 07:50:09;;;;;;;21.83;12.77;;;17.20;99.90;;;;;;6081003;23;20196;-80
2023/09/30 07:52:46;;;;;;;18.87;12.47;;;17.30;99.90;;;;;;6124872;23;20168;-81
2023/09/30 07:55:31;;;;;;;20.83;13.00;;;17.30;99.90;;;;;;6124928;23;20603;-80
2023/09/30 07:58:03;;;;;;;18.17;13.00;;;17.20;99.90;;;;;;6099761;23;20172;-82
2023/09/30 08:00:42;;;;;;;17.63;12.83;;;17.30;99.90;;;;;;6123476;23;20200;-81
2023/09/30 08:03:29;;;;;;;19.80;13.00;;;17.40;99.90;;;;;;6098325;23;20181;-82
2023/09/30 08:05:59;;;;;;;18.83;12.60;;;17.50;99.90;;;;;;6075528;23;20663;-81
2023/09/30 08:08:36;;;;;;;21.70;12.80;;;17.60;99.90;;;;;;6076487;23;20180;-80
2023/09/30 08:11:15;;;;;;;26.93;13.60;;;17.70;99.90;;;;;;6057069;23;20288;-81
2023/09/30 08:13:53;;;;;;;20.67;13.33;;;17.80;99.90;;;;;;6046629;23;20177;-79
2023/09/30 08:16:44;;;;;;;;;;;;;;;;;;;;;
2023/09/30 08:23:01;;;;;;;19.13;13.20;;;18.20;99.90;;;;;;5926884;24;20212;-79
2023/09/30 08:29:57;;;;;;;18.93;13.07;;;18.20;99.90;;;;;;5864725;24;20189;-80
2023/09/30 08:33:19;;;;;;;19.40;13.27;;;18.20;99.90;;;;;;5845482;24;20190;-81
2023/09/30 08:36:18;;;;;;;21.20;13.10;;;18.10;99.90;;;;;;5866883;24;20210;-81
2023/09/30 08:39:02;;;;;;;19.90;13.13;;;18.20;99.90;;;;;;5868813;24;20186;-81
2023/09/30 08:41:39;;;;;;;20.03;13.03;;;18.20;99.90;;;;;;5826372;24;20195;-81
2023/09/30 08:44:30;;;;;;;22.93;13.53;;;18.30;99.90;;;;;;5867876;24;20175;-81
2023/09/30 08:47:09;;;;;;;20.40;13.77;;;18.20;99.90;;;;;;5862743;24;20274;-82
2023/09/30 09:11:27;;;;;;;20.50;14.03;;;18.10;99.90;;;;;;5938540;24;20260;-86
2023/09/30 09:33:12;;;;;;;28.80;17.63;;;18.00;99.90;;;;;;6121796;23;20204;-83
2023/09/30 09:37:13;;;;;;;30.97;19.13;;;17.90;99.90;;;;;;6068506;23;20186;-81
2023/09/30 09:41:07;;;;;;;;;;;;;;;;;;;;;
2023/09/30 09:55:40;;;;;;;29.00;20.83;;;17.60;99.90;;;;;;6153293;23;20222;-83
2023/09/30 10:03:00;;;;;;;32.93;22.20;;;17.60;99.90;;;;;;5892592;24;20262;-82
2023/09/30 10:06:41;;;;;;;;;;;;;;;;;;;;;
2023/09/30 10:40:38;;;;;;;19.47;13.40;;;17.30;99.90;;;;;;5583770;22;15511931;-82
2023/09/30 10:43:42;;;;;;;21.37;11.50;;;17.20;99.90;;;;;;6221214;23;20657;-83
2023/09/30 10:47:30;;;;;;;21.27;10.40;;;17.10;99.90;;;;;;6226939;23;20172;-83
2023/09/30 10:51:01;;;;;;;13.77;8.13;;;17.30;99.90;;;;;;6199169;22;20176;-82
2023/09/30 10:54:24;;;;;;;10.50;6.27;;;17.10;99.90;;;;;;6173206;23;20259;-83
2023/09/30 10:56:54;;;;;;;10.27;6.50;;;17.00;99.90;;;;;;6190317;23;20246;-82
2023/09/30 10:59:35;;;;;;;11.27;5.40;;;16.90;99.90;;;;;;6192825;22;20166;-80
2023/09/30 11:02:04;;;;;;;10.33;5.73;;;16.90;99.90;;;;;;6217492;22;20155;-80
2023/09/30 11:04:49;;;;;;;7.07;4.77;;;16.80;99.90;;;;;;6217396;22;20193;-83
2023/09/30 11:07:28;;;;;;;8.20;4.67;;;16.60;99.90;;;;;;6191321;23;20274;-80
2023/09/30 11:10:13;;;;;;;7.93;4.60;;;16.60;99.90;;;;;;6216309;23;20173;-81
2023/09/30 11:12:58;;;;;;;8.13;4.40;;;16.60;99.90;;;;;;6215583;23;20223;-80
2023/09/30 11:16:15;;;;;;;7.00;4.03;;;16.60;99.90;;;;;;6215541;23;20174;-81
2023/09/30 11:23:16;;;;;;;6.63;4.30;;;16.60;99.90;;;;;;6264638;22;20207;-83
2023/09/30 11:26:41;;;;;;;14.77;4.23;;;16.70;99.90;;;;;;6127895;23;20559;-80
2023/09/30 11:29:20;;;;;;;7.37;3.20;;;16.60;99.90;;;;;;6103508;23;20233;-81
2023/09/30 11:31:55;;;;;;;8.77;3.67;;;16.50;99.90;;;;;;6082509;23;20183;-78
2023/09/30 11:34:37;;;;;;;5.90;3.37;;;16.30;99.90;;;;;;6081616;23;20617;-80
2023/09/30 11:37:15;;;;;;;6.40;2.90;;;16.30;99.90;;;;;;6105989;23;20194;-83
2023/09/30 11:40:20;;;;;;;7.07;3.00;;;16.10;99.90;;;;;;6104588;23;20180;-84
2023/09/30 11:43:37;;;;;;;;;;;;;;;;;;;;;
2023/09/30 11:46:48;;;;;;;8.57;3.10;;;16.10;99.90;;;;;;6098953;23;20251;-81
2023/09/30 11:54:49;;;;;;;11.73;4.10;;;16.60;99.90;;;;;;5912305;24;20172;-83
2023/09/30 11:57:24;;;;;;;10.83;3.47;;;16.80;99.90;;;;;;5993443;23;20282;-81
2023/09/30 12:00:24;;;;;;;;;;;;;;;;;;;;;
2023/09/30 12:03:59;;;;;;;;;;;;;;;;;;;;;
2023/09/30 12:06:59;;;;;;;10.17;3.90;;;17.00;99.90;;;;;;5870628;24;20658;-82
2023/09/30 12:09:50;;;;;;;8.37;3.60;;;17.00;99.90;;;;;;5848242;24;20206;-79
2023/09/30 12:12:35;;;;;;;8.53;3.47;;;17.20;99.90;;;;;;5847469;24;20175;-82
2023/09/30 12:15:42;;;;;;;11.27;4.13;;;17.30;99.90;;;;;;5861360;24;20179;-83
2023/09/30 12:18:30;;;;;;;8.80;3.20;;;17.80;99.90;;;;;;5869687;24;20202;-80
2023/09/30 12:21:47;;;;;;;6.97;3.30;;;18.00;99.90;;;;;;5866088;24;20202;-83
2023/09/30 12:24:44;;;;;;;;;;;;;;;;;;;;;
2023/09/30 12:27:42;;;;;;;7.97;3.33;;;18.30;99.90;;;;;;5931280;24;20261;-83
2023/09/30 12:30:40;;;;;;;6.97;3.10;;;18.00;99.90;;;;;;5951510;24;20389;-79
2023/09/30 12:33:22;;;;;;;7.77;3.13;;;18.10;99.90;;;;;;5950301;24;20180;-83
2023/09/30 12:35:53;;;;;;;7.83;3.23;;;18.00;99.90;;;;;;5951612;24;20336;-82
2023/09/30 12:38:35;;;;;;;7.57;2.90;;;18.00;99.90;;;;;;5952402;24;20208;-82
2023/09/30 12:41:05;;;;;;;7.00;3.10;;;18.20;99.90;;;;;;5951016;24;20645;-80
2023/09/30 12:43:42;;;;;;;7.20;3.00;;;18.80;99.90;;;;;;6072416;23;20174;-82
2023/09/30 12:46:16;;;;;;;6.30;2.90;;;19.20;99.90;;;;;;6134987;23;20167;-82
2023/09/30 12:48:48;;;;;;;9.30;3.07;;;19.40;99.90;;;;;;6156649;23;20191;-82
2023/09/30 12:51:23;;;;;;;10.50;3.37;;;19.50;99.90;;;;;;6156621;23;20236;-82
2023/09/30 12:54:01;;;;;;;8.87;2.97;;;19.30;99.90;;;;;;6157109;23;20179;-82
2023/09/30 12:56:39;;;;;;;8.73;3.00;;;19.30;99.90;;;;;;6155721;23;20210;-83
2023/09/30 12:59:29;;;;;;;6.63;2.70;;;19.30;99.90;;;;;;6134829;23;20171;-82
2023/09/30 13:02:32;;;;;;;;;;;;;;;;;;;;;
2023/09/30 13:05:46;;;;;;;8.50;3.20;;;19.50;99.90;;;;;;6157506;23;20198;-81
2023/09/30 13:08:40;;;;;;;8.60;3.00;;;19.20;99.90;;;;;;6180551;23;20265;-82
2023/09/30 13:12:05;;;;;;;6.90;2.80;;;19.30;99.90;;;;;;6152690;23;20182;-83
2023/09/30 13:15:51;;;;;;;7.80;2.90;;;19.30;99.90;;;;;;6141857;23;20195;-84
2023/09/30 13:18:45;;;;;;;10.33;3.10;;;19.30;99.90;;;;;;6255654;22;20268;-76
2023/09/30 13:21:13;;;;;;;8.97;3.13;;;19.40;99.90;;;;;;6271083;22;20196;-77
2023/09/30 13:23:45;;;;;;;8.00;3.33;;;19.50;99.90;;;;;;6286392;22;20197;-77
2023/09/30 13:26:13;;;;;;;12.63;3.73;;;19.50;99.90;;;;;;6302077;22;20175;-88
2023/09/30 13:28:41;;;;;;;11.43;3.03;;;19.50;99.90;;;;;;6276982;22;20200;-88
2023/09/30 13:31:12;;;;;;;7.63;2.80;;;19.70;99.90;;;;;;6278295;22;20161;-85
2023/09/30 13:33:47;;;;;;;9.53;2.73;;;19.80;99.90;;;;;;6303641;22;20172;-89
2023/09/30 13:36:15;;;;;;;9.27;2.77;;;20.10;99.90;;;;;;6277573;22;20271;-75
2023/09/30 13:38:53;;;;;;;10.97;2.90;;;20.20;99.90;;;;;;6278875;22;20307;-89
2023/09/30 13:41:29;;;;;;;8.20;2.53;;;20.40;99.90;;;;;;6278870;22;20168;-87
2023/09/30 13:43:58;;;;;;;9.63;2.77;;;20.40;99.90;;;;;;6304260;22;20251;-77
2023/09/30 13:46:28;;;;;;;5.50;2.47;;;20.50;99.90;;;;;;6300854;22;20675;-76
2023/09/30 13:48:58;;;;;;;8.27;2.43;;;20.60;99.90;;;;;;6300388;22;20721;-77
2023/09/30 13:51:28;;;;;;;7.00;2.30;;;20.70;99.90;;;;;;6302926;22;20203;-90
2023/09/30 13:54:09;;;;;;;7.87;2.00;;;20.70;99.90;;;;;;6303986;22;20165;-88
2023/09/30 13:56:44;;;;;;;6.40;2.43;;;20.90;99.90;;;;;;6305263;22;20541;-75
2023/09/30 13:59:15;;;;;;;7.87;2.50;;;20.70;99.90;;;;;;6304451;22;20495;-79
2023/09/30 14:01:43;;;;;;;6.90;2.07;;;20.80;99.90;;;;;;6304926;22;20169;-76
2023/09/30 14:04:13;;;;;;;6.10;2.13;;;20.70;99.90;;;;;;6305033;22;20169;-88
2023/09/30 14:06:43;;;;;;;5.40;2.00;;;20.60;99.90;;;;;;6305542;22;20200;-88
2023/09/30 14:09:14;;;;;;;10.40;3.70;;;20.60;99.90;;;;;;6305835;22;20203;-88
2023/09/30 14:12:00;;;;;;;5.60;1.90;;;20.40;99.90;;;;;;6304789;22;20183;-77
2023/09/30 14:14:28;;;;;;;10.20;2.50;;;20.50;99.90;;;;;;6303529;22;20165;-75
2023/09/30 14:17:10;;;;;;;5.93;2.50;;;20.40;99.90;;;;;;6303780;22;20168;-74
2023/09/30 14:19:40;;;;;;;8.10;2.47;;;20.20;99.90;;;;;;6304233;22;20160;-85
2023/09/30 14:22:12;;;;;;;12.00;2.20;;;19.90;99.90;;;;;;6305393;22;20203;-74
2023/09/30 14:24:42;;;;;;;6.07;1.90;;;19.90;99.90;;;;;;6304273;22;20223;-76
2023/09/30 14:27:10;;;;;;;8.97;2.13;;;19.80;99.90;;;;;;6303408;22;20173;-75
2023/09/30 14:29:38;;;;;;;6.23;2.13;;;19.60;99.90;;;;;;6303954;22;20199;-75
2023/09/30 14:32:12;;;;;;;8.47;2.80;;;19.60;99.90;;;;;;6304738;22;20451;-87
2023/09/30 14:34:46;;;;;;;5.77;1.87;;;19.50;99.90;;;;;;6307016;22;20165;-88
2023/09/30 14:37:17;;;;;;;7.63;2.10;;;19.30;99.90;;;;;;6306837;22;20188;-86
2023/09/30 14:39:47;;;;;;;5.87;2.10;;;19.10;99.90;;;;;;6306822;22;20161;-87
2023/09/30 14:42:14;;;;;;;6.63;2.30;;;18.90;99.90;;;;;;6306352;22;20150;-77
2023/09/30 14:44:42;;;;;;;6.73;2.10;;;19.00;99.90;;;;;;6304551;22;20490;-76
2023/09/30 14:47:10;;;;;;;11.17;2.40;;;18.90;99.90;;;;;;6303887;22;20175;-75
2023/09/30 14:49:43;;;;;;;8.13;2.37;;;18.90;99.90;;;;;;6304070;22;20360;-77
2023/09/30 14:52:20;;;;;;;10.17;2.27;;;18.80;99.90;;;;;;6304016;22;20195;-87
2023/09/30 14:54:50;;;;;;;7.50;2.73;;;18.90;99.90;;;;;;6304001;22;20168;-87
2023/09/30 14:57:32;;;;;;;7.33;2.77;;;18.80;99.90;;;;;;6303685;22;20149;-88
2023/09/30 15:00:00;;;;;;;8.60;3.00;;;18.70;99.90;;;;;;6278474;22;20251;-86
2023/09/30 15:02:43;;;;;;;7.83;2.47;;;18.80;99.90;;;;;;6304046;22;20253;-77
2023/09/30 15:05:22;;;;;;;7.77;2.20;;;18.70;99.90;;;;;;6302764;22;20258;-75
2023/09/30 15:07:52;;;;;;;9.63;2.80;;;18.60;99.90;;;;;;6305502;22;20161;-89
2023/09/30 15:10:22;;;;;;;8.13;2.80;;;18.50;99.90;;;;;;6304756;22;20177;-77
2023/09/30 15:12:58;;;;;;;5.60;2.20;;;18.50;99.90;;;;;;6277358;22;20168;-77
2023/09/30 15:15:32;;;;;;;6.30;2.47;;;18.50;99.90;;;;;;6304817;22;20247;-75
2023/09/30 15:18:07;;;;;;;5.53;1.83;;;18.50;99.90;;;;;;6253493;22;20269;-76
2023/09/30 15:20:40;;;;;;;8.93;2.33;;;18.60;99.90;;;;;;6304670;22;20203;-78
2023/09/30 15:23:22;;;;;;;9.73;2.33;;;18.60;99.90;;;;;;6306283;22;20196;-75